PADK Airport Information

Runway Information
Runway 05 Length 7790 ft width 200 ft
Elevation 17 ft Threshold 0 ft Heading 61
Runway 23 Length 7790 ft Width 200 ft
Elevation 15 ft Threshold 0 ft Heading 241
Runway 18 Length 7605 ft width 200 ft
Elevation 6 ft Threshold 0 ft Heading 185
Runway 36 Length 7605 ft Width 200 ft
Elevation 4 ft Threshold 0 ft Heading 5
Airport Frequencies
Airport Navaids
Type NDB-DME Name Mount Moffett Frequency 530 KHZ
Type TACAN Name Adak Frequency 113000 KHZ
Airport Weather Information & NOTAM
ADDS - METARS form results

(0511 UTC 17 November 2018)
Data provider http://aviationweather.gov/metar/data/
 
METAR text: PADK 170456Z AUTO 00000KT 10SM BKN017 OVC025 06/06 A2930 RMK AO2 SLP922 T00610056
Conditions at: PADK (ADAK NAS , AK, US) observed 0456 UTC 17 November 2018
Temperature: 6.1°C (43°F)
Dewpoint: 5.6°C (42°F) [RH = 97%]
Pressure (altimeter): 29.30 inches Hg (992.3 mb)
[Sea-level pressure:  992.2 mb]
Winds: calm
Visibility: 10 or more miles (16+ km)
Ceiling: 1700 feet AGL
Clouds: broken clouds at 1700 feet AGL
overcast cloud deck at 2500 feet AGL
Weather: automated observation with no human augmentation;
there may or may not be significant weather present at this time

METAR text: PADK 170448Z AUTO 00000KT 10SM OVC017 07/06 A2930 RMK AO2
Conditions at: PADK (ADAK NAS , AK, US) observed 0448 UTC 17 November 2018
Temperature: 7.0°C (45°F)
Dewpoint: 6.0°C (43°F) [RH = 93%]
Pressure (altimeter): 29.30 inches Hg (992.3 mb)
Winds: calm
Visibility: 10 or more miles (16+ km)
Ceiling: 1700 feet AGL
Clouds: overcast cloud deck at 1700 feet AGL
Weather: automated observation with no human augmentation;
there may or may not be significant weather present at this time

METAR text: PADK 170441Z AUTO 00000KT 10SM BKN014 OVC020 07/05 A2930 RMK AO2
Conditions at: PADK (ADAK NAS , AK, US) observed 0441 UTC 17 November 2018
Temperature: 7.0°C (45°F)
Dewpoint: 5.0°C (41°F) [RH = 87%]
Pressure (altimeter): 29.30 inches Hg (992.3 mb)
Winds: calm
Visibility: 10 or more miles (16+ km)
Ceiling: 1400 feet AGL
Clouds: broken clouds at 1400 feet AGL
overcast cloud deck at 2000 feet AGL
Weather: automated observation with no human augmentation;
there may or may not be significant weather present at this time

METAR text: PADK 170418Z AUTO 00000KT 10SM BKN022 OVC036 07/06 A2931 RMK AO2
Conditions at: PADK (ADAK NAS , AK, US) observed 0418 UTC 17 November 2018
Temperature: 7.0°C (45°F)
Dewpoint: 6.0°C (43°F) [RH = 93%]
Pressure (altimeter): 29.31 inches Hg (992.6 mb)
Winds: calm
Visibility: 10 or more miles (16+ km)
Ceiling: 2200 feet AGL
Clouds: broken clouds at 2200 feet AGL
overcast cloud deck at 3600 feet AGL
Weather: automated observation with no human augmentation;
there may or may not be significant weather present at this time